Time;durP1;ratioP1;P1;durP2;ratioP2;P2;SDS_P1;SDS_P2;PMS_P1;PMS_P2;Temp;Humidity;BMP_temperature;BMP_pressure;BME280_temperature;BME280_humidity;BME280_pressure;Samples;Min_cycle;Max_cycle;Signal;HPM_P1;HPM_P2
2023/10/02 00:01:51;;;;;;;0.00;0.00;;;17.90;87.20;;;;;;5031694;28;20136;-68
2023/10/02 00:04:24;;;;;;;0.00;0.00;;;17.90;87.20;;;;;;5031237;28;20052;-68
2023/10/02 00:07:05;;;;;;;0.00;0.00;;;17.90;87.20;;;;;;5030563;28;20053;-69
2023/10/02 00:09:41;;;;;;;0.00;0.00;;;17.90;87.10;;;;;;5031458;28;20049;-68
2023/10/02 00:12:14;;;;;;;0.00;0.00;;;17.90;87.20;;;;;;5031387;28;20473;-69
2023/10/02 00:14:41;;;;;;;0.00;0.00;;;17.80;87.20;;;;;;5031147;28;20034;-69
2023/10/02 00:17:13;;;;;;;0.00;0.00;;;17.80;87.20;;;;;;5031341;28;20055;-69
2023/10/02 00:19:45;;;;;;;0.00;0.00;;;17.80;87.20;;;;;;5031517;28;20037;-69
2023/10/02 00:25:17;;;;;;;0.00;0.00;;;17.70;87.30;;;;;;5030855;28;20100;-68
2023/10/02 00:27:48;;;;;;;0.10;0.10;;;17.70;87.40;;;;;;5031284;28;20593;-68
2023/10/02 00:30:15;;;;;;;0.00;0.00;;;17.70;87.40;;;;;;5031151;28;20057;-68
2023/10/02 00:32:45;;;;;;;0.00;0.00;;;17.70;87.50;;;;;;5031133;28;20070;-69
2023/10/02 00:35:11;;;;;;;0.00;0.00;;;17.70;87.60;;;;;;5029976;28;20050;-69
2023/10/02 00:37:44;;;;;;;0.00;0.00;;;17.60;87.60;;;;;;5030429;28;20041;-69
2023/10/02 00:40:20;;;;;;;0.00;0.00;;;17.60;87.70;;;;;;5031372;28;20212;-69
2023/10/02 00:42:58;;;;;;;0.00;0.00;;;17.60;87.70;;;;;;5031234;28;20037;-69
2023/10/02 00:45:29;;;;;;;0.00;0.00;;;17.70;87.70;;;;;;5030542;28;20044;-68
2023/10/02 00:48:25;;;;;;;0.00;0.00;;;17.60;87.70;;;;;;5011133;28;20407;-68
2023/10/02 00:50:54;;;;;;;0.00;0.00;;;17.60;87.70;;;;;;5022081;28;20453;-68
2023/10/02 00:53:28;;;;;;;0.00;0.00;;;17.60;87.70;;;;;;5011015;28;20044;-69
2023/10/02 00:55:53;;;;;;;0.00;0.00;;;17.60;87.70;;;;;;5025104;28;20045;-68
2023/10/02 00:58:19;;;;;;;0.00;0.00;;;17.60;87.70;;;;;;5030367;28;20042;-69
2023/10/02 01:00:53;;;;;;;0.00;0.00;;;17.60;87.70;;;;;;5030662;28;20179;-69
2023/10/02 01:03:18;;;;;;;0.00;0.00;;;17.60;87.70;;;;;;5030433;28;20048;-68
2023/10/02 01:05:50;;;;;;;0.00;0.00;;;17.60;87.80;;;;;;5028942;28;20033;-69
2023/10/02 01:08:24;;;;;;;0.00;0.00;;;17.60;87.90;;;;;;5030354;28;20121;-69
2023/10/02 01:10:58;;;;;;;0.00;0.00;;;17.60;87.90;;;;;;5030815;28;20124;-69
2023/10/02 01:13:35;;;;;;;0.00;0.00;;;17.60;87.90;;;;;;5030641;28;20029;-68
2023/10/02 01:16:08;;;;;;;0.00;0.00;;;17.70;87.90;;;;;;5029869;28;20045;-68
2023/10/02 01:18:35;;;;;;;0.00;0.00;;;17.60;88.00;;;;;;5030185;28;20053;-68
2023/10/02 01:21:09;;;;;;;0.00;0.00;;;17.60;88.10;;;;;;5030074;28;20456;-68
2023/10/02 01:24:07;;;;;;;0.00;0.00;;;17.70;88.00;;;;;;5030128;28;20153;-68
2023/10/02 01:26:43;;;;;;;0.00;0.00;;;17.60;88.00;;;;;;5029492;28;20048;-68
2023/10/02 01:29:12;;;;;;;0.00;0.00;;;17.60;88.00;;;;;;5029247;28;20080;-68
2023/10/02 01:31:44;;;;;;;0.00;0.00;;;17.70;88.00;;;;;;5029513;28;20045;-68
2023/10/02 01:34:12;;;;;;;0.00;0.00;;;17.60;88.00;;;;;;5030143;28;20060;-68
2023/10/02 01:36:41;;;;;;;0.00;0.00;;;17.60;88.00;;;;;;5029278;28;20053;-68
2023/10/02 01:39:15;;;;;;;0.00;0.00;;;17.60;88.10;;;;;;5029512;28;20041;-68
2023/10/02 01:41:48;;;;;;;0.00;0.00;;;17.60;88.10;;;;;;5029330;28;20245;-67
2023/10/02 01:44:20;;;;;;;0.00;0.00;;;17.70;88.00;;;;;;5029875;28;20052;-67
2023/10/02 01:46:55;;;;;;;;;;;17.70;88.10;;;;;;5029448;28;20515;-68
2023/10/02 01:49:25;;;;;;;0.00;0.00;;;17.60;88.10;;;;;;5027027;28;19925;-68
2023/10/02 01:51:57;;;;;;;0.00;0.00;;;17.60;88.10;;;;;;5028482;28;20092;-68
2023/10/02 01:54:25;;;;;;;0.00;0.00;;;17.60;88.10;;;;;;5026120;28;20129;-68
2023/10/02 01:56:52;;;;;;;0.00;0.00;;;17.60;88.10;;;;;;5024311;28;20037;-68
2023/10/02 01:59:21;;;;;;;0.00;0.00;;;17.60;88.10;;;;;;5029732;28;20033;-68
2023/10/02 02:01:56;;;;;;;0.00;0.00;;;17.60;88.10;;;;;;5029822;28;20045;-68
2023/10/02 02:04:24;;;;;;;0.00;0.00;;;17.60;88.00;;;;;;5015712;28;20038;-68
2023/10/02 02:06:56;;;;;;;0.03;0.03;;;17.60;88.00;;;;;;5025357;28;20049;-68
2023/10/02 02:09:33;;;;;;;0.00;0.00;;;17.60;88.00;;;;;;5029449;28;20123;-68
2023/10/02 02:14:41;;;;;;;0.00;0.00;;;17.50;88.20;;;;;;5022290;28;20469;-68
2023/10/02 02:17:10;;;;;;;0.00;0.00;;;17.50;88.20;;;;;;5025191;28;20079;-68
2023/10/02 02:19:48;;;;;;;0.00;0.00;;;17.50;88.20;;;;;;5029564;28;20046;-68
2023/10/02 02:22:17;;;;;;;0.25;0.25;;;17.50;88.10;;;;;;5029098;28;20049;-68
2023/10/02 02:24:47;;;;;;;0.10;0.10;;;17.50;88.20;;;;;;5028900;28;20053;-68
2023/10/02 02:27:14;;;;;;;0.00;0.00;;;17.50;88.30;;;;;;5028790;28;20041;-68
2023/10/02 02:29:40;;;;;;;0.00;0.00;;;17.50;88.40;;;;;;5020610;28;20509;-68
2023/10/02 02:32:06;;;;;;;0.00;0.00;;;17.50;88.50;;;;;;5024026;28;20085;-68
2023/10/02 02:34:32;;;;;;;1.00;0.47;;;17.40;88.40;;;;;;5027833;28;20095;-68
2023/10/02 02:36:59;;;;;;;0.25;0.25;;;17.40;88.50;;;;;;5028258;28;20118;-68
2023/10/02 02:39:27;;;;;;;0.00;0.00;;;17.40;88.50;;;;;;5029144;28;20410;-68
2023/10/02 02:44:46;;;;;;;0.00;0.00;;;17.40;88.60;;;;;;5028805;28;20045;-68
2023/10/02 02:47:17;;;;;;;0.00;0.00;;;17.40;88.60;;;;;;5028307;28;20045;-68
2023/10/02 02:49:58;;;;;;;0.00;0.00;;;17.30;88.50;;;;;;5029189;28;20041;-68
2023/10/02 02:52:27;;;;;;;0.00;0.00;;;17.40;88.60;;;;;;5029313;28;20087;-68
2023/10/02 02:55:15;;;;;;;0.00;0.00;;;17.40;88.60;;;;;;5032460;28;20063;-68
2023/10/02 02:57:45;;;;;;;0.00;0.00;;;17.30;88.60;;;;;;5032490;28;20456;-68
2023/10/02 03:00:29;;;;;;;0.00;0.00;;;17.40;88.50;;;;;;5032388;28;20050;-68
2023/10/02 03:02:56;;;;;;;0.00;0.00;;;17.30;88.60;;;;;;5032766;28;20082;-68
2023/10/02 03:05:25;;;;;;;0.10;0.10;;;17.30;88.60;;;;;;5032742;28;20044;-68
2023/10/02 03:07:56;;;;;;;0.00;0.00;;;17.30;88.60;;;;;;5032606;28;20038;-67
2023/10/02 03:10:23;;;;;;;0.00;0.00;;;17.30;88.60;;;;;;5032557;28;20168;-67
2023/10/02 03:12:51;;;;;;;0.00;0.00;;;17.30;88.60;;;;;;5032096;28;20822;-68
2023/10/02 03:15:45;;;;;;;0.00;0.00;;;17.20;88.60;;;;;;5032451;28;20042;-68
2023/10/02 03:18:22;;;;;;;0.05;0.05;;;17.20;88.60;;;;;;5012519;28;20046;-68
2023/10/02 03:20:49;;;;;;;0.00;0.00;;;17.20;88.60;;;;;;5013183;28;20081;-68
2023/10/02 03:23:18;;;;;;;0.00;0.00;;;17.20;88.50;;;;;;5012748;28;20050;-68
2023/10/02 03:25:45;;;;;;;0.00;0.00;;;17.20;88.50;;;;;;5020626;28;20584;-68
2023/10/02 03:28:32;;;;;;;0.00;0.00;;;17.20;88.50;;;;;;5031262;28;20101;-68
2023/10/02 03:31:03;;;;;;;0.00;0.00;;;17.10;88.50;;;;;;5031852;28;20056;-68
2023/10/02 03:33:32;;;;;;;0.00;0.00;;;17.10;88.50;;;;;;5032538;28;20494;-68
2023/10/02 03:36:08;;;;;;;0.00;0.00;;;17.10;88.50;;;;;;5032124;28;20044;-68
2023/10/02 03:38:43;;;;;;;0.00;0.00;;;17.10;88.50;;;;;;5031571;28;20034;-68
2023/10/02 03:41:10;;;;;;;0.10;0.10;;;17.10;88.70;;;;;;5032018;28;20042;-68
2023/10/02 03:43:56;;;;;;;0.00;0.00;;;17.00;88.90;;;;;;5023133;28;20038;-69
2023/10/02 03:46:35;;;;;;;0.13;0.13;;;17.10;88.90;;;;;;5031516;28;20486;-69
2023/10/02 03:49:03;;;;;;;0.00;0.00;;;17.00;88.90;;;;;;5012190;28;20115;-69
2023/10/02 03:51:36;;;;;;;0.00;0.00;;;17.00;88.90;;;;;;5023353;28;20139;-69
2023/10/02 03:54:23;;;;;;;0.00;0.00;;;17.00;88.90;;;;;;5031623;28;20129;-68
2023/10/02 03:56:54;;;;;;;0.25;0.25;;;17.00;88.90;;;;;;5031070;28;20052;-68
2023/10/02 03:59:25;;;;;;;0.10;0.10;;;17.00;89.00;;;;;;5031691;28;20762;-69
2023/10/02 04:01:51;;;;;;;0.00;0.00;;;17.00;88.90;;;;;;5031382;28;20064;-68
2023/10/02 04:06:43;;;;;;;0.00;0.00;;;17.00;89.10;;;;;;5031799;28;20088;-69
2023/10/02 04:09:17;;;;;;;0.00;0.00;;;17.00;89.20;;;;;;5031185;28;20045;-68
2023/10/02 04:11:50;;;;;;;0.10;0.10;;;17.00;89.20;;;;;;5031547;28;20053;-69
2023/10/02 04:14:54;;;;;;;0.00;0.00;;;17.00;89.20;;;;;;5031147;28;20053;-68
2023/10/02 04:19:48;;;;;;;0.00;0.00;;;16.90;89.20;;;;;;5031109;28;20053;-68
2023/10/02 04:22:28;;;;;;;0.17;0.17;;;17.00;89.20;;;;;;5030677;28;20065;-68
2023/10/02 04:25:06;;;;;;;0.00;0.00;;;17.00;89.20;;;;;;5031538;28;20528;-68
2023/10/02 04:32:34;;;;;;;0.00;0.00;;;16.90;89.40;;;;;;5031108;28;20056;-69
2023/10/02 04:35:02;;;;;;;0.00;0.00;;;17.00;89.30;;;;;;5030947;28;20041;-68
2023/10/02 04:37:31;;;;;;;0.10;0.10;;;17.00;89.50;;;;;;5031203;28;20045;-68
2023/10/02 04:42:29;;;;;;;0.00;0.00;;;16.90;89.70;;;;;;5028802;28;20100;-68
2023/10/02 04:44:58;;;;;;;0.70;0.70;;;16.90;89.80;;;;;;5030859;28;20050;-68
2023/10/02 04:47:28;;;;;;;0.10;0.10;;;16.90;89.80;;;;;;5030695;28;20152;-69
2023/10/02 04:52:59;;;;;;;0.00;0.00;;;16.80;89.80;;;;;;5030413;28;20053;-69
2023/10/02 04:55:31;;;;;;;5.35;0.70;;;16.80;89.90;;;;;;5029508;28;20434;-69
2023/10/02 05:01:00;;;;;;;0.00;0.00;;;16.70;89.70;;;;;;5019699;28;20080;-67
2023/10/02 05:03:25;;;;;;;0.00;0.00;;;16.70;89.60;;;;;;5028775;28;20402;-68
2023/10/02 05:05:53;;;;;;;0.00;0.00;;;16.60;89.50;;;;;;5030459;28;20076;-69
2023/10/02 05:09:12;;;;;;;0.00;0.00;;;16.60;89.50;;;;;;5028570;28;20141;-68
2023/10/02 05:11:45;;;;;;;0.10;0.10;;;16.60;89.40;;;;;;5016888;28;20057;-68
2023/10/02 05:14:13;;;;;;;0.00;0.00;;;16.60;89.40;;;;;;5030743;28;20096;-68
2023/10/02 05:16:42;;;;;;;0.00;0.00;;;16.60;89.50;;;;;;5029103;28;20045;-68
2023/10/02 05:19:09;;;;;;;0.00;0.00;;;16.60;89.50;;;;;;5029874;28;20505;-69
2023/10/02 05:21:38;;;;;;;0.00;0.00;;;16.60;89.50;;;;;;5029436;28;20060;-68
2023/10/02 05:24:11;;;;;;;0.00;0.00;;;16.60;89.50;;;;;;5030280;28;20423;-69
2023/10/02 05:26:41;;;;;;;0.22;0.22;;;16.60;89.60;;;;;;5027678;28;20076;-68
2023/10/02 05:29:17;;;;;;;0.00;0.00;;;16.60;89.60;;;;;;5010156;28;20046;-68
2023/10/02 05:31:47;;;;;;;0.00;0.00;;;16.60;89.60;;;;;;5025889;28;20059;-68
2023/10/02 05:34:23;;;;;;;0.00;0.00;;;16.60;89.70;;;;;;5011764;28;20050;-68
2023/10/02 05:39:40;;;;;;;0.00;0.00;;;16.60;89.70;;;;;;5029380;28;20053;-67
2023/10/02 05:42:15;;;;;;;0.20;0.20;;;16.60;89.80;;;;;;5028620;28;20048;-67
2023/10/02 05:44:42;;;;;;;0.00;0.00;;;16.60;89.70;;;;;;5032758;28;20037;-69
2023/10/02 05:47:08;;;;;;;0.00;0.00;;;16.60;90.00;;;;;;5028130;28;20052;-67
2023/10/02 05:49:47;;;;;;;0.00;0.00;;;16.60;89.90;;;;;;5026775;28;20525;-67
2023/10/02 05:52:14;;;;;;;0.00;0.00;;;16.60;90.00;;;;;;5028298;28;20083;-67
2023/10/02 05:54:47;;;;;;;0.05;0.05;;;16.60;90.00;;;;;;5043819;28;20132;-68
2023/10/02 05:57:13;;;;;;;0.00;0.00;;;16.60;90.00;;;;;;5027358;28;20069;-68
2023/10/02 05:59:44;;;;;;;0.00;0.00;;;16.60;90.00;;;;;;5028551;28;20536;-68
2023/10/02 06:02:22;;;;;;;0.00;0.00;;;16.70;90.00;;;;;;5022050;28;20699;-67
2023/10/02 06:04:52;;;;;;;0.00;0.00;;;16.70;90.00;;;;;;5026158;28;20095;-67
2023/10/02 06:10:08;;;;;;;1.27;0.55;;;16.80;90.00;;;;;;5029154;28;20049;-67
2023/10/02 06:12:42;;;;;;;0.00;0.00;;;16.80;89.90;;;;;;5025505;28;20549;-68
2023/10/02 06:15:48;;;;;;;0.00;0.00;;;16.80;89.90;;;;;;4993860;28;20474;-68
2023/10/02 06:18:27;;;;;;;0.10;0.10;;;16.80;89.90;;;;;;4999058;28;20058;-69
2023/10/02 06:21:03;;;;;;;0.00;0.00;;;16.80;89.90;;;;;;4990573;28;20046;-69
2023/10/02 06:23:38;;;;;;;0.00;0.00;;;16.80;89.90;;;;;;4998893;28;20106;-70
2023/10/02 06:26:10;;;;;;;0.05;0.05;;;16.80;89.90;;;;;;4984838;28;20040;-70
2023/10/02 06:28:36;;;;;;;0.00;0.00;;;16.90;90.00;;;;;;4987826;28;20078;-69
2023/10/02 06:31:06;;;;;;;0.00;0.00;;;16.90;90.00;;;;;;5001472;28;20062;-68
2023/10/02 06:33:36;;;;;;;0.00;0.00;;;16.90;90.00;;;;;;4992221;28;20042;-68
2023/10/02 06:36:05;;;;;;;0.30;0.30;;;17.00;90.00;;;;;;4993596;28;20046;-70
2023/10/02 06:38:31;;;;;;;0.00;0.00;;;16.90;90.10;;;;;;4997075;28;20451;-68
2023/10/02 06:41:07;;;;;;;0.03;0.03;;;16.90;90.10;;;;;;5006273;28;20046;-68
2023/10/02 06:43:33;;;;;;;0.43;0.43;;;17.00;90.20;;;;;;5007318;28;20040;-68
2023/10/02 06:46:07;;;;;;;0.00;0.00;;;17.00;90.30;;;;;;4981945;28;20050;-68
2023/10/02 06:48:43;;;;;;;0.00;0.00;;;16.90;90.30;;;;;;5006013;28;20093;-68
2023/10/02 06:51:15;;;;;;;0.00;0.00;;;17.00;90.20;;;;;;4998787;28;20495;-68
2023/10/02 06:53:40;;;;;;;0.00;0.00;;;17.00;90.20;;;;;;5001136;28;20084;-68
2023/10/02 06:56:10;;;;;;;0.00;0.00;;;17.00;90.20;;;;;;4997915;28;20126;-67
2023/10/02 06:58:49;;;;;;;0.35;0.35;;;17.00;90.40;;;;;;5002892;28;20076;-68
2023/10/02 07:01:18;;;;;;;0.00;0.00;;;17.00;90.30;;;;;;4984741;28;20050;-67
2023/10/02 07:03:50;;;;;;;0.00;0.00;;;17.00;90.40;;;;;;5002940;28;20529;-67
2023/10/02 07:06:19;;;;;;;0.10;0.10;;;17.00;90.40;;;;;;5002837;28;20124;-66
2023/10/02 07:08:48;;;;;;;0.20;0.20;;;17.10;90.50;;;;;;5003650;28;20042;-67
2023/10/02 07:11:18;;;;;;;0.00;0.00;;;17.10;90.50;;;;;;5000383;28;20041;-67
2023/10/02 07:13:56;;;;;;;0.00;0.00;;;17.20;90.50;;;;;;4998822;28;20050;-67
2023/10/02 07:16:22;;;;;;;5.18;0.55;;;17.20;90.30;;;;;;4998251;28;20129;-67
2023/10/02 07:18:53;;;;;;;0.10;0.10;;;17.30;90.30;;;;;;4998921;28;20046;-67
2023/10/02 07:21:22;;;;;;;0.85;0.82;;;17.30;90.30;;;;;;4997724;28;20060;-68
2023/10/02 07:23:48;;;;;;;0.25;0.25;;;17.30;90.50;;;;;;4991850;28;20046;-67
2023/10/02 07:26:17;;;;;;;0.30;0.30;;;17.30;90.50;;;;;;4997302;28;20039;-67
2023/10/02 07:28:50;;;;;;;0.05;0.05;;;17.40;90.60;;;;;;4997299;28;20127;-68
2023/10/02 07:31:20;;;;;;;0.20;0.20;;;17.50;90.70;;;;;;4996829;28;20042;-67
2023/10/02 07:33:45;;;;;;;1.65;0.60;;;17.50;90.90;;;;;;4999159;28;20044;-68
2023/10/02 07:36:15;;;;;;;0.90;0.90;;;17.60;90.80;;;;;;4999420;28;20728;-68
2023/10/02 07:38:42;;;;;;;0.00;0.00;;;17.60;91.30;;;;;;4997723;28;20124;-68
2023/10/02 07:41:24;;;;;;;0.00;0.00;;;17.70;91.20;;;;;;5004570;28;20053;-67
2023/10/02 07:43:53;;;;;;;0.25;0.25;;;17.80;91.20;;;;;;4993581;28;20046;-68
2023/10/02 07:46:21;;;;;;;0.00;0.00;;;17.90;91.00;;;;;;4994492;28;20189;-68
2023/10/02 07:49:00;;;;;;;0.00;0.00;;;17.90;90.90;;;;;;4998585;28;20046;-68
2023/10/02 07:51:30;;;;;;;1.00;0.90;;;18.00;90.80;;;;;;5005721;28;20054;-67
2023/10/02 07:53:59;;;;;;;0.08;0.08;;;18.10;90.60;;;;;;4997251;28;20139;-67
2023/10/02 07:56:28;;;;;;;0.15;0.15;;;18.10;90.70;;;;;;5004137;28;20820;-66
2023/10/02 07:58:55;;;;;;;0.45;0.45;;;18.10;90.60;;;;;;4986622;28;20050;-68
2023/10/02 08:01:27;;;;;;;0.10;0.10;;;18.20;90.60;;;;;;4997878;28;20061;-67
2023/10/02 08:03:55;;;;;;;0.00;0.00;;;18.20;90.50;;;;;;5002434;28;20409;-68
2023/10/02 08:06:22;;;;;;;0.10;0.10;;;18.30;90.40;;;;;;4995772;28;20050;-67
2023/10/02 08:11:51;;;;;;;0.80;0.63;;;18.40;90.40;;;;;;4997126;28;20043;-66
2023/10/02 08:14:38;;;;;;;0.55;0.43;;;18.40;90.50;;;;;;4979812;28;20172;-66
2023/10/02 08:17:18;;;;;;;0.20;0.20;;;18.50;90.60;;;;;;5001703;28;20057;-67
2023/10/02 08:19:54;;;;;;;0.10;0.10;;;18.60;90.70;;;;;;5001134;28;20041;-65
2023/10/02 08:22:35;;;;;;;0.28;0.28;;;18.60;90.60;;;;;;4996132;28;20495;-66
2023/10/02 08:25:05;;;;;;;0.00;0.00;;;18.70;90.60;;;;;;5007852;28;20038;-67
2023/10/02 08:27:32;;;;;;;0.28;0.28;;;18.70;90.50;;;;;;5011753;28;20042;-66
2023/10/02 08:30:00;;;;;;;0.00;0.00;;;18.80;90.20;;;;;;5009209;28;20050;-66
2023/10/02 08:32:28;;;;;;;3.20;0.75;;;18.80;90.10;;;;;;5010439;28;20466;-66
2023/10/02 08:34:55;;;;;;;1.45;0.35;;;18.70;90.00;;;;;;5007117;28;20041;-67
2023/10/02 08:37:20;;;;;;;0.43;0.43;;;18.70;90.00;;;;;;4991507;28;20424;-65
2023/10/02 08:39:46;;;;;;;5.15;1.10;;;18.70;90.00;;;;;;4997591;28;20050;-67
2023/10/02 08:42:12;;;;;;;0.00;0.00;;;18.80;90.10;;;;;;5010906;28;20046;-66
2023/10/02 08:44:41;;;;;;;1.17;1.08;;;18.80;90.00;;;;;;5010184;28;20057;-67
2023/10/02 08:47:11;;;;;;;0.20;0.20;;;18.80;90.00;;;;;;5010240;28;20041;-68
2023/10/02 08:49:40;;;;;;;0.00;0.00;;;18.90;89.90;;;;;;5011060;28;20789;-68
2023/10/02 08:52:13;;;;;;;0.00;0.00;;;18.90;90.20;;;;;;4997244;28;21843;-68
2023/10/02 08:54:44;;;;;;;0.00;0.00;;;19.00;90.00;;;;;;5007272;28;20176;-67
2023/10/02 08:57:10;;;;;;;0.95;0.88;;;19.10;90.00;;;;;;5010785;28;20563;-68
2023/10/02 08:59:39;;;;;;;0.20;0.20;;;19.10;90.10;;;;;;5010911;28;20161;-68
2023/10/02 09:02:16;;;;;;;0.65;0.47;;;19.10;90.00;;;;;;5007985;28;20038;-68
2023/10/02 09:04:55;;;;;;;0.00;0.00;;;19.10;89.70;;;;;;5007036;28;20173;-67
2023/10/02 09:10:24;;;;;;;1.13;0.82;;;19.10;89.60;;;;;;5008766;28;20054;-67
2023/10/02 09:13:20;;;;;;;0.73;0.65;;;19.20;89.60;;;;;;5010784;28;20046;-66
2023/10/02 09:15:48;;;;;;;0.30;0.30;;;19.10;89.80;;;;;;5004440;28;20452;-68
2023/10/02 09:18:34;;;;;;;0.10;0.10;;;19.10;89.80;;;;;;4992815;28;20514;-68
2023/10/02 09:21:16;;;;;;;0.30;0.25;;;19.10;89.80;;;;;;5000430;28;20116;-68
2023/10/02 09:23:52;;;;;;;0.00;0.00;;;19.20;89.80;;;;;;5000372;28;20042;-69
2023/10/02 09:26:26;;;;;;;2.10;0.40;;;19.20;89.80;;;;;;4996084;28;20104;-68
2023/10/02 09:28:59;;;;;;;0.75;0.75;;;19.30;89.60;;;;;;4995235;28;20082;-69
2023/10/02 09:31:30;;;;;;;0.80;0.80;;;19.40;89.60;;;;;;4986359;28;20164;-69
2023/10/02 09:33:56;;;;;;;0.00;0.00;;;19.40;89.60;;;;;;5001868;28;20042;-68
2023/10/02 09:36:35;;;;;;;0.00;0.00;;;19.50;89.50;;;;;;5009279;28;20129;-67
2023/10/02 09:42:05;;;;;;;0.05;0.05;;;19.50;89.30;;;;;;4999927;28;20053;-68
2023/10/02 09:44:40;;;;;;;0.20;0.20;;;19.50;89.20;;;;;;4990393;28;20129;-67
2023/10/02 09:47:07;;;;;;;0.20;0.20;;;19.50;89.30;;;;;;5006929;28;20176;-67
2023/10/02 09:50:10;;;;;;;2.20;1.65;;;19.40;89.40;;;;;;5002691;28;20042;-67
2023/10/02 09:52:58;;;;;;;2.40;0.63;;;19.50;89.50;;;;;;4999062;28;20052;-67
2023/10/02 09:55:40;;;;;;;0.00;0.00;;;19.50;89.50;;;;;;5003033;28;20044;-67
2023/10/02 09:58:26;;;;;;;0.43;0.43;;;19.50;89.50;;;;;;5004660;28;20550;-67
2023/10/02 10:03:56;;;;;;;0.10;0.10;;;19.60;89.60;;;;;;4997173;28;20060;-67
2023/10/02 10:06:28;;;;;;;0.00;0.00;;;19.70;89.60;;;;;;4997838;28;20161;-67
2023/10/02 10:12:21;;;;;;;0.32;0.32;;;19.90;89.30;;;;;;4996149;28;20054;-68
2023/10/02 10:14:54;;;;;;;0.00;0.00;;;20.00;89.10;;;;;;4996624;28;20046;-67
2023/10/02 10:17:21;;;;;;;0.45;0.45;;;20.00;88.90;;;;;;5001869;28;20042;-68
2023/10/02 10:22:40;;;;;;;0.05;0.05;;;20.10;88.60;;;;;;5008758;28;20491;-68
2023/10/02 10:27:41;;;;;;;0.10;0.10;;;20.10;88.20;;;;;;5007448;28;20045;-67
2023/10/02 10:30:19;;;;;;;2.13;0.68;;;20.20;88.30;;;;;;5000744;28;20081;-68
2023/10/02 10:32:45;;;;;;;0.00;0.00;;;20.20;88.30;;;;;;5006740;28;20069;-70
2023/10/02 10:35:35;;;;;;;0.00;0.00;;;20.30;88.30;;;;;;4997006;28;20042;-66
2023/10/02 10:38:07;;;;;;;1.52;0.57;;;20.30;88.20;;;;;;5003276;28;20045;-67
2023/10/02 10:40:46;;;;;;;0.00;0.00;;;20.40;88.20;;;;;;4998483;28;20053;-67
2023/10/02 10:43:14;;;;;;;0.20;0.20;;;20.30;88.10;;;;;;5003336;28;20066;-67
2023/10/02 10:45:40;;;;;;;0.10;0.10;;;20.40;88.00;;;;;;5004000;28;20064;-67
2023/10/02 10:48:23;;;;;;;0.13;0.13;;;20.40;88.10;;;;;;5002167;28;20463;-66
2023/10/02 10:50:57;;;;;;;0.08;0.08;;;20.40;88.00;;;;;;5004352;28;20104;-67
2023/10/02 10:53:27;;;;;;;0.08;0.08;;;20.50;88.00;;;;;;5004689;28;20428;-67
2023/10/02 10:55:59;;;;;;;0.10;0.10;;;20.50;88.00;;;;;;4985938;28;20514;-68
2023/10/02 10:58:35;;;;;;;0.15;0.15;;;20.60;87.80;;;;;;5001894;28;20057;-68
2023/10/02 11:01:03;;;;;;;1.20;1.10;;;20.60;87.80;;;;;;5001842;28;20065;-68
2023/10/02 11:03:30;;;;;;;0.20;0.20;;;20.60;87.90;;;;;;5003883;28;20116;-68
2023/10/02 11:06:03;;;;;;;0.28;0.28;;;20.70;87.60;;;;;;5000753;28;20561;-68
2023/10/02 11:08:30;;;;;;;0.45;0.45;;;20.80;87.60;;;;;;4985880;28;20503;-68
2023/10/02 11:11:11;;;;;;;0.00;0.00;;;20.80;87.50;;;;;;4999155;28;20104;-68
2023/10/02 11:13:50;;;;;;;1.17;1.10;;;20.80;87.50;;;;;;5003417;28;20447;-68
2023/10/02 11:16:31;;;;;;;2.33;0.93;;;20.80;87.20;;;;;;5006464;28;20050;-68
2023/10/02 11:22:14;;;;;;;0.00;0.00;;;21.00;87.10;;;;;;5006257;28;20045;-68
2023/10/02 11:25:20;;;;;;;0.10;0.10;;;21.00;86.80;;;;;;5008079;28;20046;-68
2023/10/02 11:27:59;;;;;;;0.30;0.30;;;21.00;86.60;;;;;;5004562;28;20092;-68
2023/10/02 11:30:31;;;;;;;0.32;0.32;;;20.90;86.50;;;;;;5006652;28;20084;-68
2023/10/02 11:33:04;;;;;;;0.38;0.38;;;20.90;86.50;;;;;;5007898;28;20499;-68
2023/10/02 11:35:41;;;;;;;0.50;0.50;;;20.90;86.40;;;;;;5003608;28;20049;-68
2023/10/02 11:38:07;;;;;;;0.17;0.17;;;20.80;86.50;;;;;;5007721;28;20053;-68
2023/10/02 11:40:34;;;;;;;0.17;0.17;;;20.80;86.50;;;;;;5008242;28;20045;-68
2023/10/02 11:43:00;;;;;;;2.72;2.28;;;20.70;86.40;;;;;;5006412;28;20048;-68
2023/10/02 11:45:28;;;;;;;16.67;1.35;;;20.80;86.30;;;;;;4989505;28;20049;-68
2023/10/02 11:47:54;;;;;;;0.43;0.43;;;20.70;86.30;;;;;;5006676;28;20054;-67
2023/10/02 11:50:20;;;;;;;3.70;1.08;;;20.70;86.30;;;;;;5003391;28;20048;-67
2023/10/02 11:52:47;;;;;;;0.52;0.52;;;20.70;86.30;;;;;;5005864;28;20459;-67
2023/10/02 11:55:17;;;;;;;0.20;0.20;;;20.60;86.20;;;;;;4997394;28;20058;-67
2023/10/02 11:57:44;;;;;;;2.17;1.98;;;20.60;86.40;;;;;;5008081;28;20057;-67
2023/10/02 12:00:12;;;;;;;0.20;0.20;;;20.60;86.40;;;;;;5007095;28;20415;-68
2023/10/02 12:02:45;;;;;;;0.15;0.15;;;20.60;86.40;;;;;;4989568;28;20139;-67
2023/10/02 12:05:10;;;;;;;0.00;0.00;;;20.60;86.50;;;;;;5008446;28;20105;-68
2023/10/02 12:07:36;;;;;;;23.50;0.82;;;20.70;86.60;;;;;;5006920;28;20507;-67
2023/10/02 12:10:02;;;;;;;1.10;1.00;;;20.80;86.50;;;;;;5002800;28;20128;-67
2023/10/02 12:12:27;;;;;;;1.25;1.08;;;20.80;86.20;;;;;;5004886;28;20049;-68
2023/10/02 12:14:55;;;;;;;0.20;0.20;;;20.80;86.20;;;;;;4989519;28;20049;-68
2023/10/02 12:17:21;;;;;;;0.20;0.20;;;20.80;86.10;;;;;;5005943;28;20081;-69
2023/10/02 12:19:48;;;;;;;1.00;0.80;;;20.80;86.10;;;;;;5005585;28;20613;-68
2023/10/02 12:22:14;;;;;;;0.20;0.20;;;21.00;86.00;;;;;;5004645;28;20122;-68
2023/10/02 12:24:40;;;;;;;0.10;0.10;;;20.90;86.00;;;;;;4989449;28;20052;-68
2023/10/02 12:27:10;;;;;;;0.10;0.10;;;21.00;86.10;;;;;;5006744;28;20144;-68
2023/10/02 12:29:37;;;;;;;0.20;0.20;;;21.00;85.90;;;;;;5005642;28;20057;-68
2023/10/02 12:32:03;;;;;;;0.00;0.00;;;21.00;85.60;;;;;;5005657;28;20081;-68
2023/10/02 12:34:29;;;;;;;1.55;1.45;;;21.00;85.60;;;;;;5006468;28;20147;-67
2023/10/02 12:36:55;;;;;;;0.20;0.20;;;21.00;85.60;;;;;;5005315;28;20125;-68
2023/10/02 12:39:22;;;;;;;0.08;0.08;;;21.10;85.70;;;;;;5006053;28;20109;-68
2023/10/02 12:41:48;;;;;;;0.40;0.40;;;21.10;85.20;;;;;;4988031;28;20128;-68
2023/10/02 12:44:16;;;;;;;0.08;0.08;;;21.10;85.30;;;;;;5005364;28;20186;-68
2023/10/02 12:46:50;;;;;;;0.43;0.28;;;21.10;85.40;;;;;;5005306;28;20057;-67
2023/10/02 12:49:19;;;;;;;0.10;0.10;;;21.10;85.30;;;;;;4987865;28;20054;-68
2023/10/02 12:51:46;;;;;;;2.38;0.60;;;21.10;85.50;;;;;;4994800;28;20061;-69
2023/10/02 12:54:12;;;;;;;0.05;0.05;;;21.10;84.60;;;;;;5004140;28;20077;-67
2023/10/02 12:56:39;;;;;;;0.40;0.20;;;21.10;85.00;;;;;;5003905;28;20061;-68
2023/10/02 12:59:10;;;;;;;3.50;1.17;;;21.20;85.10;;;;;;5004636;28;20050;-68
2023/10/02 13:01:36;;;;;;;0.13;0.13;;;21.20;85.20;;;;;;4995721;28;20792;-67
2023/10/02 13:04:01;;;;;;;0.28;0.28;;;21.20;85.10;;;;;;5004666;28;20042;-67
2023/10/02 13:06:29;;;;;;;0.20;0.20;;;21.20;85.20;;;;;;5004047;28;20396;-68
2023/10/02 13:09:01;;;;;;;0.45;0.45;;;21.30;85.10;;;;;;5003694;28;20054;-68
2023/10/02 13:11:30;;;;;;;0.00;0.00;;;21.40;85.00;;;;;;5003696;28;20511;-68
2023/10/02 13:13:56;;;;;;;0.47;0.47;;;21.30;84.90;;;;;;5001816;28;20100;-68
2023/10/02 13:16:25;;;;;;;0.10;0.10;;;21.40;85.00;;;;;;5003042;28;20616;-68
2023/10/02 13:18:51;;;;;;;0.08;0.08;;;21.40;85.10;;;;;;5003338;28;20103;-68
2023/10/02 13:21:19;;;;;;;1.08;0.98;;;21.50;85.20;;;;;;5003794;28;20507;-70
2023/10/02 13:23:45;;;;;;;2.65;1.27;;;21.50;84.90;;;;;;5005085;28;20667;-70
2023/10/02 13:26:15;;;;;;;0.15;0.15;;;21.60;84.80;;;;;;5005075;28;20148;-71
2023/10/02 13:28:48;;;;;;;0.05;0.05;;;21.50;84.40;;;;;;5005136;28;20088;-70
2023/10/02 13:31:16;;;;;;;1.30;0.35;;;21.50;84.80;;;;;;4986114;28;20518;-71
2023/10/02 13:33:52;;;;;;;0.22;0.22;;;21.60;84.10;;;;;;4987907;28;20085;-70
2023/10/02 13:36:22;;;;;;;0.00;0.00;;;21.60;84.80;;;;;;5004489;28;20076;-70
2023/10/02 13:38:57;;;;;;;0.00;0.00;;;21.70;84.70;;;;;;5002039;28;20077;-72
2023/10/02 13:41:28;;;;;;;0.05;0.05;;;21.60;84.40;;;;;;5001935;28;20049;-71
2023/10/02 13:43:58;;;;;;;0.57;0.57;;;21.60;84.40;;;;;;4995492;28;20050;-70
2023/10/02 13:46:24;;;;;;;0.50;0.50;;;21.70;84.60;;;;;;5002297;28;20053;-70
2023/10/02 13:48:52;;;;;;;0.38;0.38;;;21.70;84.60;;;;;;5000944;28;20526;-70
2023/10/02 13:51:19;;;;;;;1.10;1.05;;;21.70;84.40;;;;;;5004168;28;20220;-70
2023/10/02 13:53:46;;;;;;;0.20;0.20;;;21.70;84.20;;;;;;5000576;28;20045;-70
2023/10/02 13:56:20;;;;;;;0.80;0.65;;;21.70;84.40;;;;;;5004025;28;20498;-70
2023/10/02 13:58:48;;;;;;;0.00;0.00;;;21.70;84.50;;;;;;5004602;28;20049;-70
2023/10/02 14:01:15;;;;;;;0.00;0.00;;;21.70;84.60;;;;;;5004449;28;20065;-71
2023/10/02 14:03:45;;;;;;;0.20;0.20;;;21.70;84.40;;;;;;5005541;28;20041;-70
2023/10/02 14:06:12;;;;;;;0.00;0.00;;;21.70;84.40;;;;;;5002866;28;20442;-71
2023/10/02 14:08:39;;;;;;;0.30;0.30;;;21.70;84.30;;;;;;5004859;28;20046;-70